Time;durP1;ratioP1;P1;durP2;ratioP2;P2;SDS_P1;SDS_P2;PMS_P1;PMS_P2;Temp;Humidity;BMP_temperature;BMP_pressure;BME280_temperature;BME280_humidity;BME280_pressure;Samples;Min_cycle;Max_cycle;Signal;HPM_P1;HPM_P2
2023/03/14 00:00:13;;;;;;;1.53;1.43;;;;;;;;;;5064608;28;20217;-90
2023/03/14 00:02:41;;;;;;;1.60;1.50;;;;;;;;;;5068003;28;20261;-90
2023/03/14 00:05:08;;;;;;;1.50;1.40;;;;;;;;;;5072467;28;20201;-89
2023/03/14 00:07:36;;;;;;;2.00;1.80;;;;;;;;;;5075899;28;20237;-90
2023/03/14 00:10:06;;;;;;;3.00;1.20;;;;;;;;;;5076215;28;20582;-91
2023/03/14 00:12:33;;;;;;;2.80;1.70;;;;;;;;;;5064597;28;20238;-90
2023/03/14 00:15:03;;;;;;;1.50;1.40;;;;;;;;;;5055206;28;20590;-89
2023/03/14 00:17:30;;;;;;;1.13;1.13;;;;;;;;;;5058623;28;20233;-90
2023/03/14 00:20:03;;;;;;;3.53;1.43;;;;;;;;;;5075497;28;20220;-90
2023/03/14 00:22:30;;;;;;;3.07;1.50;;;;;;;;;;5075631;28;20268;-91
2023/03/14 00:24:57;;;;;;;1.13;1.13;;;;;;;;;;5070788;28;20197;-91
2023/03/14 00:27:26;;;;;;;1.47;1.37;;;;;;;;;;5070913;28;20241;-90
2023/03/14 00:29:53;;;;;;;1.50;1.40;;;;;;;;;;5064082;28;20212;-90
2023/03/14 00:32:20;;;;;;;1.60;1.50;;;;;;;;;;5073768;28;20233;-90
2023/03/14 00:34:47;;;;;;;2.00;1.10;;;;;;;;;;5055645;28;20205;-90
2023/03/14 00:37:17;;;;;;;1.60;1.50;;;;;;;;;;5054989;28;20943;-90
2023/03/14 00:39:44;;;;;;;1.33;1.23;;;;;;;;;;5055514;28;20210;-90
2023/03/14 00:42:11;;;;;;;1.33;1.30;;;;;;;;;;5058561;28;20217;-90
2023/03/14 00:44:39;;;;;;;1.57;1.30;;;;;;;;;;5075391;28;20580;-89
2023/03/14 00:47:06;;;;;;;1.47;1.30;;;;;;;;;;5072959;28;20696;-90
2023/03/14 00:49:33;;;;;;;1.60;1.50;;;;;;;;;;5060128;28;20200;-88
2023/03/14 00:52:00;;;;;;;1.40;1.30;;;;;;;;;;5074637;28;20705;-91
2023/03/14 00:54:27;;;;;;;1.20;1.20;;;;;;;;;;5058150;28;20569;-90
2023/03/14 00:56:54;;;;;;;1.20;1.20;;;;;;;;;;5054577;28;20636;-90
2023/03/14 00:59:22;;;;;;;1.53;1.43;;;;;;;;;;5054886;28;20297;-90
2023/03/14 01:01:50;;;;;;;1.43;1.43;;;;;;;;;;5054901;28;20574;-90
2023/03/14 01:04:17;;;;;;;1.13;1.13;;;;;;;;;;5071413;28;20217;-89
2023/03/14 01:06:44;;;;;;;2.93;1.73;;;;;;;;;;5070342;28;20218;-90
2023/03/14 01:09:11;;;;;;;2.23;1.33;;;;;;;;;;5054528;28;20245;-90
2023/03/14 01:11:38;;;;;;;1.47;1.37;;;;;;;;;;5060831;28;20232;-89
2023/03/14 01:14:06;;;;;;;1.27;1.17;;;;;;;;;;5074513;28;20256;-90
2023/03/14 01:16:34;;;;;;;1.60;1.50;;;;;;;;;;5075089;28;20206;-90
2023/03/14 01:19:02;;;;;;;1.70;1.60;;;;;;;;;;5071782;28;20241;-90
2023/03/14 01:21:31;;;;;;;1.60;1.50;;;;;;;;;;5054141;28;20202;-90
2023/03/14 01:23:58;;;;;;;1.10;1.10;;;;;;;;;;5064293;28;20233;-90
2023/03/14 01:26:27;;;;;;;5.20;1.83;;;;;;;;;;5073475;28;20202;-90
2023/03/14 01:28:55;;;;;;;2.00;1.40;;;;;;;;;;5059936;28;20225;-91
2023/03/14 01:31:22;;;;;;;1.20;1.20;;;;;;;;;;5071163;28;20232;-90
2023/03/14 01:33:49;;;;;;;1.70;1.60;;;;;;;;;;5064444;28;20225;-90
2023/03/14 01:36:18;;;;;;;3.73;1.63;;;;;;;;;;5074103;28;20212;-90
2023/03/14 01:38:45;;;;;;;1.73;1.63;;;;;;;;;;5056727;28;20237;-90
2023/03/14 01:41:14;;;;;;;4.87;1.93;;;;;;;;;;5055152;28;20209;-91
2023/03/14 01:43:41;;;;;;;2.37;1.50;;;;;;;;;;5073106;28;20231;-90
2023/03/14 01:46:16;;;;;;;2.40;1.70;;;;;;;;;;5074299;28;20212;-90
2023/03/14 01:48:45;;;;;;;1.57;1.10;;;;;;;;;;5056578;28;20244;-90
2023/03/14 01:51:14;;;;;;;1.60;1.50;;;;;;;;;;5054153;28;20200;-91
2023/03/14 01:53:43;;;;;;;1.87;1.50;;;;;;;;;;5064580;28;20727;-90
2023/03/14 01:56:11;;;;;;;2.17;1.50;;;;;;;;;;5074269;28;20654;-90
2023/03/14 01:58:39;;;;;;;4.83;1.47;;;;;;;;;;5057950;28;20237;-91
2023/03/14 02:01:06;;;;;;;1.50;1.40;;;;;;;;;;5069141;28;20205;-90
2023/03/14 02:03:37;;;;;;;1.90;1.57;;;;;;;;;;5078824;28;20227;-90
2023/03/14 02:06:06;;;;;;;1.63;1.33;;;;;;;;;;5071674;28;20668;-91
2023/03/14 02:08:34;;;;;;;3.10;1.77;;;;;;;;;;5073002;28;20237;-91
2023/03/14 02:11:02;;;;;;;5.90;1.40;;;;;;;;;;5073968;28;20205;-90
2023/03/14 02:13:29;;;;;;;3.00;1.70;;;;;;;;;;5073379;28;20233;-89
2023/03/14 02:15:56;;;;;;;3.47;1.53;;;;;;;;;;5074133;28;20217;-90
2023/03/14 02:18:24;;;;;;;1.67;1.40;;;;;;;;;;5072940;28;20239;-91
2023/03/14 02:20:54;;;;;;;2.37;1.50;;;;;;;;;;5073884;28;20212;-89
2023/03/14 02:23:25;;;;;;;1.80;1.40;;;;;;;;;;5061182;28;20233;-91
2023/03/14 02:25:54;;;;;;;1.27;1.17;;;;;;;;;;5073642;28;20555;-91
2023/03/14 02:28:23;;;;;;;1.70;1.60;;;;;;;;;;5073037;28;20316;-91
2023/03/14 02:30:50;;;;;;;8.23;1.60;;;;;;;;;;5073965;28;20209;-91
2023/03/14 02:33:18;;;;;;;2.17;1.40;;;;;;;;;;5072891;28;20237;-90
2023/03/14 02:35:47;;;;;;;1.97;1.50;;;;;;;;;;5073673;28;20197;-90
2023/03/14 02:38:18;;;;;;;3.63;1.57;;;;;;;;;;5073274;28;20241;-90
2023/03/14 02:40:45;;;;;;;1.77;1.67;;;;;;;;;;5073462;28;20202;-90
2023/03/14 02:43:12;;;;;;;1.80;1.47;;;;;;;;;;5072646;28;20236;-90
2023/03/14 02:45:42;;;;;;;1.33;1.23;;;;;;;;;;5074236;28;20209;-90
2023/03/14 02:48:12;;;;;;;3.43;1.70;;;;;;;;;;5073286;28;20244;-90
2023/03/14 02:50:40;;;;;;;4.03;1.60;;;;;;;;;;5073564;28;20228;-91
2023/03/14 02:53:07;;;;;;;1.50;1.40;;;;;;;;;;5072626;28;20309;-90
2023/03/14 02:55:34;;;;;;;1.43;1.33;;;;;;;;;;5074038;28;20216;-91
2023/03/14 02:58:01;;;;;;;2.23;1.83;;;;;;;;;;5073332;28;20241;-90
2023/03/14 03:00:30;;;;;;;2.07;1.60;;;;;;;;;;5073255;28;20201;-90
2023/03/14 03:02:58;;;;;;;5.93;2.33;;;;;;;;;;5073119;28;20253;-91
2023/03/14 03:05:25;;;;;;;1.53;1.43;;;;;;;;;;5073301;28;20201;-90
2023/03/14 03:07:52;;;;;;;1.63;1.47;;;;;;;;;;5072902;28;20248;-90
2023/03/14 03:10:20;;;;;;;1.90;1.80;;;;;;;;;;5073451;28;20208;-90
2023/03/14 03:12:47;;;;;;;1.80;1.57;;;;;;;;;;5072903;28;20245;-90
2023/03/14 03:15:14;;;;;;;1.63;1.53;;;;;;;;;;5054199;28;20298;-91
2023/03/14 03:17:41;;;;;;;2.50;1.80;;;;;;;;;;5053478;28;20248;-90
2023/03/14 03:20:10;;;;;;;2.70;1.70;;;;;;;;;;5053237;28;20201;-90
2023/03/14 03:22:37;;;;;;;5.10;1.63;;;;;;;;;;5052845;28;20273;-90
2023/03/14 03:25:05;;;;;;;2.30;1.70;;;;;;;;;;5073453;28;20209;-90
2023/03/14 03:27:32;;;;;;;3.60;1.80;;;;;;;;;;5072288;28;20237;-90
2023/03/14 03:29:59;;;;;;;1.83;1.60;;;;;;;;;;5073190;28;20201;-90
2023/03/14 03:32:26;;;;;;;3.00;1.63;;;;;;;;;;5071797;28;20244;-91
2023/03/14 03:34:53;;;;;;;1.80;1.60;;;;;;;;;;5067767;28;20190;-90
2023/03/14 03:37:22;;;;;;;1.67;1.57;;;;;;;;;;5052683;28;20261;-91
2023/03/14 03:39:51;;;;;;;2.40;1.73;;;;;;;;;;5058318;28;20206;-90
2023/03/14 03:42:18;;;;;;;6.07;1.60;;;;;;;;;;5062568;28;20233;-90
2023/03/14 03:44:47;;;;;;;2.60;1.57;;;;;;;;;;5056381;28;20202;-90
2023/03/14 03:47:14;;;;;;;1.63;1.53;;;;;;;;;;5068282;28;20302;-90
2023/03/14 03:49:41;;;;;;;1.70;1.60;;;;;;;;;;5069102;28;20200;-90
2023/03/14 03:52:09;;;;;;;3.00;1.50;;;;;;;;;;5076138;28;20335;-90
2023/03/14 03:54:55;;;;;;;5.67;1.90;;;;;;;;;;5071720;28;20233;-90
2023/03/14 03:57:22;;;;;;;3.00;1.27;;;;;;;;;;5075296;28;20236;-90
2023/03/14 03:59:50;;;;;;;1.30;1.20;;;;;;;;;;5058998;28;20666;-90
2023/03/14 04:02:17;;;;;;;4.00;1.60;;;;;;;;;;5072517;28;20233;-90
2023/03/14 04:04:44;;;;;;;4.03;1.77;;;;;;;;;;5076182;28;20212;-89
2023/03/14 04:07:13;;;;;;;2.43;1.60;;;;;;;;;;5069927;28;20241;-90
2023/03/14 04:09:40;;;;;;;1.57;1.47;;;;;;;;;;5070198;28;20813;-90
2023/03/14 04:12:10;;;;;;;2.03;1.60;;;;;;;;;;5075445;28;20232;-90
2023/03/14 04:14:37;;;;;;;1.47;1.47;;;;;;;;;;5076034;28;20200;-90
2023/03/14 04:17:05;;;;;;;1.17;1.13;;;;;;;;;;5075587;28;20839;-90
2023/03/14 04:19:32;;;;;;;2.40;1.43;;;;;;;;;;5075887;28;20205;-90
2023/03/14 04:21:59;;;;;;;2.73;1.33;;;;;;;;;;5075273;28;20201;-90
2023/03/14 04:24:26;;;;;;;1.60;1.50;;;;;;;;;;5075745;28;20197;-90
2023/03/14 04:26:53;;;;;;;1.33;1.33;;;;;;;;;;5075323;28;20607;-90
2023/03/14 04:29:21;;;;;;;4.20;1.40;;;;;;;;;;5075310;28;20284;-89
2023/03/14 04:31:49;;;;;;;2.00;1.53;;;;;;;;;;5074812;28;20209;-87
2023/03/14 04:34:16;;;;;;;5.47;1.83;;;;;;;;;;5075532;28;20228;-88
2023/03/14 04:36:43;;;;;;;1.50;1.40;;;;;;;;;;5075295;28;20201;-87
2023/03/14 04:39:10;;;;;;;1.50;1.40;;;;;;;;;;5074464;28;20233;-86
2023/03/14 04:41:37;;;;;;;1.20;1.20;;;;;;;;;;5074547;28;20593;-87
2023/03/14 04:44:04;;;;;;;3.00;1.80;;;;;;;;;;5074345;28;20229;-87
2023/03/14 04:46:32;;;;;;;2.10;1.50;;;;;;;;;;5074882;28;20696;-87
2023/03/14 04:48:59;;;;;;;2.83;1.70;;;;;;;;;;5074349;28;20229;-87
2023/03/14 04:51:27;;;;;;;2.40;1.40;;;;;;;;;;5074795;28;20202;-87
2023/03/14 04:53:55;;;;;;;4.03;1.50;;;;;;;;;;5073923;28;20283;-87
2023/03/14 04:56:22;;;;;;;7.13;1.67;;;;;;;;;;5074968;28;20205;-87
2023/03/14 04:58:49;;;;;;;1.50;1.43;;;;;;;;;;5073916;28;20237;-87
2023/03/14 05:01:17;;;;;;;2.67;1.67;;;;;;;;;;5074570;28;20217;-86
2023/03/14 05:03:46;;;;;;;3.27;1.67;;;;;;;;;;5074077;28;20233;-88
2023/03/14 05:06:13;;;;;;;1.33;1.23;;;;;;;;;;5074474;28;20213;-87
2023/03/14 05:08:40;;;;;;;1.63;1.50;;;;;;;;;;5073636;28;20233;-86
2023/03/14 05:11:07;;;;;;;1.90;1.50;;;;;;;;;;5074115;28;20198;-86
2023/03/14 05:13:34;;;;;;;1.40;1.30;;;;;;;;;;5073617;28;20245;-85
2023/03/14 05:16:05;;;;;;;1.57;1.47;;;;;;;;;;5074341;28;20206;-85
2023/03/14 05:18:32;;;;;;;2.77;2.17;;;;;;;;;;5089628;22;20233;-85
2023/03/14 05:21:01;;;;;;;5.87;1.50;;;;;;;;;;5097100;28;20227;-85
2023/03/14 05:23:28;;;;;;;2.27;1.37;;;;;;;;;;5107138;28;20577;-84
2023/03/14 05:25:55;;;;;;;3.30;1.53;;;;;;;;;;5113290;28;20204;-85
2023/03/14 05:28:22;;;;;;;1.87;1.77;;;;;;;;;;5113110;28;20239;-84
2023/03/14 05:30:49;;;;;;;1.10;1.10;;;;;;;;;;5113642;28;20204;-85
2023/03/14 05:33:16;;;;;;;1.70;1.60;;;;;;;;;;5112679;28;20644;-85
2023/03/14 05:35:43;;;;;;;3.77;1.90;;;;;;;;;;5113289;28;20215;-84
2023/03/14 05:38:12;;;;;;;1.10;1.10;;;;;;;;;;5112831;28;20243;-85
2023/03/14 05:40:39;;;;;;;3.47;1.47;;;;;;;;;;5113253;28;20234;-84
2023/03/14 05:43:07;;;;;;;2.73;1.33;;;;;;;;;;5112499;28;20238;-85
2023/03/14 05:45:35;;;;;;;4.33;1.73;;;;;;;;;;5098932;28;20204;-85
2023/03/14 05:48:02;;;;;;;1.90;1.73;;;;;;;;;;5078688;28;20262;-85
2023/03/14 05:50:29;;;;;;;1.83;1.37;;;;;;;;;;5077689;28;20227;-85
2023/03/14 05:52:56;;;;;;;1.43;1.17;;;;;;;;;;5074897;28;20639;-85
2023/03/14 05:55:24;;;;;;;2.97;1.73;;;;;;;;;;5072325;28;20232;-86
2023/03/14 05:57:51;;;;;;;3.70;1.47;;;;;;;;;;5089948;28;20703;-85
2023/03/14 06:00:19;;;;;;;1.93;1.70;;;;;;;;;;5091645;28;20217;-85
2023/03/14 06:02:46;;;;;;;1.10;1.10;;;;;;;;;;5089576;28;20720;-85
2023/03/14 06:05:13;;;;;;;2.50;2.00;;;;;;;;;;5072231;28;20684;-86
2023/03/14 06:07:40;;;;;;;1.40;1.30;;;;;;;;;;5080372;28;20239;-84
2023/03/14 06:10:08;;;;;;;1.37;1.37;;;;;;;;;;5079825;28;20224;-86
2023/03/14 06:12:36;;;;;;;2.63;1.47;;;;;;;;;;5071124;28;20233;-85
2023/03/14 06:15:03;;;;;;;3.33;1.50;;;;;;;;;;5080341;28;20288;-86
2023/03/14 06:17:30;;;;;;;2.73;1.70;;;;;;;;;;5071745;28;20236;-85
2023/03/14 06:19:57;;;;;;;2.60;1.33;;;;;;;;;;5072098;28;20583;-86
2023/03/14 06:22:24;;;;;;;1.70;1.60;;;;;;;;;;5071204;28;20233;-86
2023/03/14 06:24:51;;;;;;;2.13;1.70;;;;;;;;;;5072186;28;20220;-85
2023/03/14 06:27:19;;;;;;;1.70;1.40;;;;;;;;;;5071579;28;20239;-86
2023/03/14 06:29:47;;;;;;;2.40;1.40;;;;;;;;;;5071765;28;20653;-85
2023/03/14 06:32:14;;;;;;;1.60;1.50;;;;;;;;;;5071131;28;20233;-85
2023/03/14 06:34:41;;;;;;;1.60;1.50;;;;;;;;;;5073315;28;20223;-85
2023/03/14 06:37:08;;;;;;;1.83;1.73;;;;;;;;;;5071216;28;20237;-86
2023/03/14 06:39:35;;;;;;;1.83;1.60;;;;;;;;;;5071738;28;20701;-84
2023/03/14 06:42:02;;;;;;;1.33;1.33;;;;;;;;;;5071231;28;20205;-83
2023/03/14 06:44:29;;;;;;;1.63;1.30;;;;;;;;;;5081493;28;20208;-83
2023/03/14 06:46:58;;;;;;;3.47;1.57;;;;;;;;;;5091513;28;20212;-85
2023/03/14 06:49:25;;;;;;;2.07;1.97;;;;;;;;;;5091186;28;20235;-85
2023/03/14 06:51:52;;;;;;;1.90;1.63;;;;;;;;;;5078385;28;20208;-86
2023/03/14 06:54:19;;;;;;;1.83;1.70;;;;;;;;;;5071729;28;20229;-85
2023/03/14 06:56:46;;;;;;;1.70;1.60;;;;;;;;;;5071544;28;20197;-85
2023/03/14 06:59:13;;;;;;;1.70;1.30;;;;;;;;;;5070958;28;20298;-85
2023/03/14 07:01:40;;;;;;;2.17;1.77;;;;;;;;;;5071434;28;20669;-85
2023/03/14 07:04:10;;;;;;;4.37;1.60;;;;;;;;;;5087039;28;20235;-85
2023/03/14 07:06:37;;;;;;;2.57;1.70;;;;;;;;;;5091463;28;20216;-85
2023/03/14 07:09:04;;;;;;;3.30;1.93;;;;;;;;;;5086101;28;20233;-86
2023/03/14 07:11:31;;;;;;;1.43;1.30;;;;;;;;;;5070926;28;20826;-85
2023/03/14 07:13:58;;;;;;;1.30;1.23;;;;;;;;;;5070870;28;20603;-85
2023/03/14 07:16:28;;;;;;;1.70;1.60;;;;;;;;;;5071911;28;20212;-85
2023/03/14 07:18:55;;;;;;;3.37;1.57;;;;;;;;;;5070912;28;20240;-85
2023/03/14 07:21:23;;;;;;;2.47;1.50;;;;;;;;;;5071520;28;20197;-85
2023/03/14 07:23:50;;;;;;;2.47;1.87;;;;;;;;;;5073893;28;20723;-85
2023/03/14 07:26:18;;;;;;;7.13;2.00;;;;;;;;;;5075307;28;20209;-85
2023/03/14 07:28:45;;;;;;;2.20;1.47;;;;;;;;;;5074362;28;20240;-85
2023/03/14 07:31:12;;;;;;;1.50;1.37;;;;;;;;;;5074945;28;20220;-85
2023/03/14 07:33:39;;;;;;;1.87;1.40;;;;;;;;;;5074184;28;20233;-84
2023/03/14 07:36:06;;;;;;;3.00;2.00;;;;;;;;;;5089226;28;20197;-85
2023/03/14 07:38:35;;;;;;;1.37;1.30;;;;;;;;;;5094062;28;20690;-85
2023/03/14 07:41:02;;;;;;;1.70;1.60;;;;;;;;;;5078585;28;20621;-85
2023/03/14 07:43:30;;;;;;;4.03;1.70;;;;;;;;;;5074293;28;20237;-84
2023/03/14 07:45:57;;;;;;;2.50;1.50;;;;;;;;;;5074810;28;20198;-84
2023/03/14 07:48:26;;;;;;;5.33;1.90;;;;;;;;;;5074196;28;20235;-83
2023/03/14 07:50:54;;;;;;;2.30;1.63;;;;;;;;;;5092909;28;20216;-84
2023/03/14 07:53:21;;;;;;;3.67;1.87;;;;;;;;;;5086380;28;20237;-83
2023/03/14 07:55:51;;;;;;;1.67;1.40;;;;;;;;;;5074730;28;20305;-83
2023/03/14 07:58:18;;;;;;;1.10;1.10;;;;;;;;;;5074206;28;20240;-84
2023/03/14 08:00:46;;;;;;;3.00;1.70;;;;;;;;;;5074142;28;20635;-81
2023/03/14 08:03:13;;;;;;;2.77;1.60;;;;;;;;;;5087011;28;20240;-83
2023/03/14 08:05:40;;;;;;;1.40;1.30;;;;;;;;;;5095122;28;20209;-82
2023/03/14 08:08:07;;;;;;;2.43;1.60;;;;;;;;;;5094009;28;20233;-82
2023/03/14 08:10:35;;;;;;;1.10;1.10;;;;;;;;;;5094124;28;20734;-81
2023/03/14 08:13:03;;;;;;;1.60;1.50;;;;;;;;;;5093553;28;20240;-84
2023/03/14 08:15:31;;;;;;;2.13;1.33;;;;;;;;;;5094195;28;20740;-84
2023/03/14 08:17:58;;;;;;;2.30;1.23;;;;;;;;;;5093649;28;20237;-83
2023/03/14 08:20:26;;;;;;;1.67;1.20;;;;;;;;;;5093593;28;20228;-83
2023/03/14 08:22:53;;;;;;;1.10;1.10;;;;;;;;;;5093349;28;20240;-88
2023/03/14 08:25:20;;;;;;;1.27;1.00;;;;;;;;;;5094590;28;20201;-85
2023/03/14 08:27:47;;;;;;;1.10;1.10;;;;;;;;;;5093995;28;20240;-85
2023/03/14 08:30:17;;;;;;;1.00;1.00;;;;;;;;;;5081849;28;20709;-85
2023/03/14 08:32:44;;;;;;;0.90;0.90;;;;;;;;;;5073334;28;20236;-86
2023/03/14 08:35:12;;;;;;;1.70;1.10;;;;;;;;;;5073377;28;20275;-86
2023/03/14 08:37:39;;;;;;;1.00;1.00;;;;;;;;;;5073377;28;20268;-88
2023/03/14 08:40:08;;;;;;;1.50;1.10;;;;;;;;;;5089034;28;20243;-86
2023/03/14 08:42:36;;;;;;;1.13;0.80;;;;;;;;;;5086365;28;20723;-88
2023/03/14 08:45:03;;;;;;;1.07;1.07;;;;;;;;;;5084925;28;20204;-84
2023/03/14 08:47:31;;;;;;;0.90;0.90;;;;;;;;;;5090455;28;20228;-86
2023/03/14 08:49:58;;;;;;;0.90;0.90;;;;;;;;;;5079488;28;20707;-85
2023/03/14 08:52:26;;;;;;;2.63;1.30;;;;;;;;;;5094453;28;20235;-86
2023/03/14 08:54:53;;;;;;;3.03;1.20;;;;;;;;;;5092993;28;20228;-86
2023/03/14 08:57:21;;;;;;;0.90;0.90;;;;;;;;;;5083571;27;20722;-85
2023/03/14 08:59:48;;;;;;;0.80;0.80;;;;;;;;;;5087731;28;20216;-85
2023/03/14 09:02:15;;;;;;;1.20;1.20;;;;;;;;;;5091760;28;20244;-86
2023/03/14 09:04:44;;;;;;;1.37;1.27;;;;;;;;;;5092649;28;20200;-85
2023/03/14 09:07:11;;;;;;;0.90;0.90;;;;;;;;;;5091141;28;20236;-86
2023/03/14 09:09:38;;;;;;;2.20;1.10;;;;;;;;;;5072307;28;20225;-88
2023/03/14 09:12:06;;;;;;;1.13;1.10;;;;;;;;;;5076933;28;20202;-86
2023/03/14 09:14:33;;;;;;;1.00;1.00;;;;;;;;;;5078993;28;20712;-85
2023/03/14 09:17:00;;;;;;;0.93;0.93;;;;;;;;;;5072121;28;20212;-84
2023/03/14 09:19:27;;;;;;;1.80;1.40;;;;;;;;;;5072248;28;20233;-85
2023/03/14 09:21:56;;;;;;;1.33;1.30;;;;;;;;;;5074391;28;20206;-86
2023/03/14 09:24:23;;;;;;;1.17;1.10;;;;;;;;;;5071886;28;20210;-86
2023/03/14 09:26:50;;;;;;;1.63;1.30;;;;;;;;;;5089117;28;20220;-85
2023/03/14 09:29:18;;;;;;;0.90;0.90;;;;;;;;;;5092105;28;20213;-85
2023/03/14 09:31:45;;;;;;;0.97;0.97;;;;;;;;;;5092151;28;20192;-85
2023/03/14 09:34:12;;;;;;;0.90;0.90;;;;;;;;;;5091829;28;20236;-85
2023/03/14 09:36:39;;;;;;;2.80;1.60;;;;;;;;;;5091797;28;20200;-85
2023/03/14 09:39:07;;;;;;;1.30;1.03;;;;;;;;;;5091007;28;20763;-85
2023/03/14 09:41:35;;;;;;;1.10;1.10;;;;;;;;;;5092145;28;20573;-85
2023/03/14 09:44:05;;;;;;;1.83;1.30;;;;;;;;;;5091213;28;20228;-85
2023/03/14 09:46:33;;;;;;;2.03;1.80;;;;;;;;;;5090358;28;20928;-86
2023/03/14 09:49:00;;;;;;;1.23;1.23;;;;;;;;;;5091243;28;20233;-86
2023/03/14 09:51:28;;;;;;;1.33;1.10;;;;;;;;;;5091522;28;20212;-86
2023/03/14 09:53:55;;;;;;;1.67;1.10;;;;;;;;;;5091183;28;20727;-87
2023/03/14 09:56:26;;;;;;;1.17;1.10;;;;;;;;;;5091138;28;20200;-86
2023/03/14 09:58:56;;;;;;;0.83;0.83;;;;;;;;;;5091297;28;20243;-86
2023/03/14 10:01:26;;;;;;;1.20;1.10;;;;;;;;;;5091744;28;20205;-86
2023/03/14 10:03:55;;;;;;;1.10;1.10;;;;;;;;;;5090543;28;20297;-87
2023/03/14 10:06:23;;;;;;;1.10;1.10;;;;;;;;;;5091291;28;20216;-86
2023/03/14 10:08:52;;;;;;;1.33;1.20;;;;;;;;;;5090955;28;20240;-87
2023/03/14 10:11:20;;;;;;;1.40;1.40;;;;;;;;;;5091565;28;20258;-86
2023/03/14 10:14:03;;;;;;;1.70;1.50;;;;;;;;;;5090843;28;20236;-86
2023/03/14 10:16:31;;;;;;;1.20;1.20;;;;;;;;;;5090896;28;20220;-87
2023/03/14 10:19:03;;;;;;;2.10;1.37;;;;;;;;;;5090599;28;20293;-85
2023/03/14 10:21:33;;;;;;;1.23;1.23;;;;;;;;;;5091259;28;20234;-85
2023/03/14 10:24:09;;;;;;;1.40;1.30;;;;;;;;;;5090946;28;20235;-86
2023/03/14 10:26:36;;;;;;;2.03;1.57;;;;;;;;;;5075427;28;20197;-85
2023/03/14 10:29:05;;;;;;;1.77;1.67;;;;;;;;;;5089972;28;20738;-84
2023/03/14 10:31:47;;;;;;;0.90;0.90;;;;;;;;;;5091139;28;20550;-85
2023/03/14 10:34:17;;;;;;;0.90;0.90;;;;;;;;;;5090707;28;20271;-85
2023/03/14 10:36:44;;;;;;;1.63;1.53;;;;;;;;;;5091170;28;20208;-85
2023/03/14 10:39:25;;;;;;;1.40;1.30;;;;;;;;;;5090352;28;20236;-85
2023/03/14 10:41:54;;;;;;;1.90;1.80;;;;;;;;;;5090040;28;20196;-85
2023/03/14 10:44:23;;;;;;;1.60;1.50;;;;;;;;;;5091267;28;20207;-85
2023/03/14 10:46:57;;;;;;;1.20;1.20;;;;;;;;;;5090413;28;20207;-84
2023/03/14 10:49:27;;;;;;;1.40;1.30;;;;;;;;;;5070861;28;20244;-85
2023/03/14 10:51:54;;;;;;;1.50;1.40;;;;;;;;;;5070360;28;20236;-85
2023/03/14 10:54:23;;;;;;;1.67;1.57;;;;;;;;;;5070965;28;20221;-85
2023/03/14 10:56:57;;;;;;;1.23;1.13;;;;;;;;;;5069755;28;21013;-85
2023/03/14 10:59:26;;;;;;;1.30;1.20;;;;;;;;;;5094847;28;20302;-84
2023/03/14 11:01:56;;;;;;;2.10;2.00;;;;;;;;;;5094262;28;20212;-84
2023/03/14 11:04:31;;;;;;;1.50;1.40;;;;;;;;;;5095187;28;20196;-84
2023/03/14 11:07:04;;;;;;;1.33;1.23;;;;;;;;;;5093335;28;20227;-84
2023/03/14 11:09:33;;;;;;;1.40;1.30;;;;;;;;;;5095038;28;20228;-84
2023/03/14 11:12:04;;;;;;;1.20;1.20;;;;;;;;;;5094348;28;20208;-84
2023/03/14 11:14:36;;;;;;;1.10;1.10;;;;;;;;;;5094914;28;20225;-84
2023/03/14 11:17:08;;;;;;;1.20;1.20;;;;;;;;;;5093762;28;20216;-84
2023/03/14 11:19:43;;;;;;;1.63;1.50;;;;;;;;;;5094457;28;20605;-84
2023/03/14 11:22:15;;;;;;;1.40;1.40;;;;;;;;;;5094328;28;20286;-84
2023/03/14 11:25:00;;;;;;;1.57;1.47;;;;;;;;;;5097099;22;20267;-91
2023/03/14 11:27:32;;;;;;;1.80;1.70;;;;;;;;;;5077466;28;20240;-91
2023/03/14 11:30:03;;;;;;;1.10;1.00;;;;;;;;;;5098197;28;20204;-91
2023/03/14 11:32:37;;;;;;;1.33;1.10;;;;;;;;;;5097287;28;20232;-92
2023/03/14 11:35:14;;;;;;;1.00;1.00;;;;;;;;;;5076626;28;20673;-91
2023/03/14 11:37:44;;;;;;;1.50;1.40;;;;;;;;;;5060357;28;20256;-91
2023/03/14 11:40:15;;;;;;;1.23;1.23;;;;;;;;;;5078998;28;20642;-91
2023/03/14 11:42:44;;;;;;;1.07;1.07;;;;;;;;;;5057320;28;20238;-91
2023/03/14 11:45:18;;;;;;;1.20;1.20;;;;;;;;;;5057844;28;20226;-91
2023/03/14 11:47:47;;;;;;;1.10;1.10;;;;;;;;;;5060221;28;20656;-92
2023/03/14 11:50:17;;;;;;;1.27;1.27;;;;;;;;;;5097863;28;20572;-91
2023/03/14 11:52:47;;;;;;;1.20;1.20;;;;;;;;;;5096587;28;20236;-92
2023/03/14 11:55:18;;;;;;;1.20;1.20;;;;;;;;;;5097689;28;20319;-91
2023/03/14 11:57:46;;;;;;;1.30;1.30;;;;;;;;;;5097790;28;20239;-91
2023/03/14 12:00:17;;;;;;;1.13;1.13;;;;;;;;;;5097450;28;20196;-91
2023/03/14 12:02:48;;;;;;;1.30;1.30;;;;;;;;;;5086319;28;20241;-91
2023/03/14 12:05:47;;;;;;;1.30;1.30;;;;;;;;;;5057995;28;20591;-91
2023/03/14 12:08:32;;;;;;;1.67;1.57;;;;;;;;;;4995624;28;20242;-91
2023/03/14 12:11:12;;;;;;;1.27;1.27;;;;;;;;;;5055811;28;20213;-92
2023/03/14 12:13:40;;;;;;;2.17;2.03;;;;;;;;;;5093490;28;20229;-92
2023/03/14 12:16:21;;;;;;;1.80;1.70;;;;;;;;;;5089544;28;20221;-92
2023/03/14 12:18:48;;;;;;;1.80;1.70;;;;;;;;;;5063268;28;20237;-91
2023/03/14 12:21:15;;;;;;;1.93;1.83;;;;;;;;;;5064618;28;20208;-91
2023/03/14 12:23:43;;;;;;;1.60;1.60;;;;;;;;;;5096031;28;20273;-91
2023/03/14 12:26:15;;;;;;;1.20;1.20;;;;;;;;;;5096572;28;20209;-91
2023/03/14 12:28:44;;;;;;;1.10;1.10;;;;;;;;;;5096386;28;20228;-93
2023/03/14 12:31:29;;;;;;;1.10;1.10;;;;;;;;;;5096754;28;20672;-92
2023/03/14 12:34:04;;;;;;;1.47;1.37;;;;;;;;;;5086566;28;20244;-92
2023/03/14 12:36:53;;;;;;;1.30;1.30;;;;;;;;;;5081194;28;20213;-92
2023/03/14 12:39:27;;;;;;;0.90;0.90;;;;;;;;;;5076102;28;20217;-90
2023/03/14 12:42:02;;;;;;;0.90;0.90;;;;;;;;;;5068852;28;20209;-92
2023/03/14 12:44:41;;;;;;;1.00;1.00;;;;;;;;;;5065620;28;20237;-89
2023/03/14 12:47:32;;;;;;;0.97;0.97;;;;;;;;;;5064841;28;20233;-92
2023/03/14 12:50:08;;;;;;;0.80;0.80;;;;;;;;;;5041172;28;20206;-91
2023/03/14 12:52:38;;;;;;;0.80;0.80;;;;;;;;;;5086693;28;20232;-90
2023/03/14 12:55:08;;;;;;;1.40;1.30;;;;;;;;;;5076241;28;20240;-90
2023/03/14 12:57:38;;;;;;;1.50;1.40;;;;;;;;;;5057237;28;20240;-89
2023/03/14 13:00:17;;;;;;;1.70;1.60;;;;;;;;;;5077641;28;20205;-90
2023/03/14 13:02:45;;;;;;;1.90;1.57;;;;;;;;;;5074201;28;20728;-90
2023/03/14 13:05:35;;;;;;;1.70;1.60;;;;;;;;;;5054419;28;20229;-90
2023/03/14 13:08:08;;;;;;;1.70;1.60;;;;;;;;;;5073252;28;20236;-91
2023/03/14 13:10:43;;;;;;;1.90;1.57;;;;;;;;;;5057418;28;20198;-91
2023/03/14 13:13:17;;;;;;;2.20;1.90;;;;;;;;;;5060011;28;20321;-89
2023/03/14 13:15:45;;;;;;;1.07;1.07;;;;;;;;;;5058581;28;20209;-92
2023/03/14 13:18:14;;;;;;;1.10;1.10;;;;;;;;;;5058523;28;20229;-90
2023/03/14 13:20:43;;;;;;;1.10;1.10;;;;;;;;;;5086866;28;20207;-90
2023/03/14 13:23:22;;;;;;;1.30;1.30;;;;;;;;;;5092620;28;20229;-90
2023/03/14 13:25:49;;;;;;;1.00;1.00;;;;;;;;;;5094438;28;20292;-89
2023/03/14 13:28:18;;;;;;;3.23;1.13;;;;;;;;;;5093393;28;20319;-89
2023/03/14 13:30:46;;;;;;;1.33;1.07;;;;;;;;;;5094552;28;20209;-90
2023/03/14 13:33:14;;;;;;;1.40;1.40;;;;;;;;;;5082353;28;20222;-89
2023/03/14 13:35:43;;;;;;;1.10;1.10;;;;;;;;;;5053741;28;20229;-89
2023/03/14 13:38:28;;;;;;;1.00;1.00;;;;;;;;;;5053585;28;20257;-90
2023/03/14 13:40:59;;;;;;;1.17;1.17;;;;;;;;;;5053689;28;20210;-90
2023/03/14 13:43:30;;;;;;;1.30;1.30;;;;;;;;;;5081713;28;20590;-90
2023/03/14 13:46:14;;;;;;;1.50;1.40;;;;;;;;;;5093659;28;20280;-88
2023/03/14 13:48:49;;;;;;;1.60;1.60;;;;;;;;;;5093690;28;20294;-91
2023/03/14 13:51:18;;;;;;;2.40;1.40;;;;;;;;;;5094069;28;20196;-89
2023/03/14 13:53:45;;;;;;;1.50;1.50;;;;;;;;;;5093842;28;20239;-90
2023/03/14 13:56:19;;;;;;;1.30;1.27;;;;;;;;;;5094550;28;20700;-90
2023/03/14 13:58:46;;;;;;;1.20;1.10;;;;;;;;;;5094331;28;20233;-90
2023/03/14 14:01:15;;;;;;;1.10;1.10;;;;;;;;;;5094065;28;20209;-90
2023/03/14 14:03:44;;;;;;;2.23;1.50;;;;;;;;;;5093390;28;20244;-90
2023/03/14 14:06:18;;;;;;;1.63;1.53;;;;;;;;;;5094541;28;20201;-90
2023/03/14 14:08:46;;;;;;;1.80;1.20;;;;;;;;;;5077513;28;20229;-90
2023/03/14 14:11:18;;;;;;;1.20;1.20;;;;;;;;;;5094040;28;20204;-89
2023/03/14 14:13:47;;;;;;;1.47;1.40;;;;;;;;;;5086258;28;20229;-90
2023/03/14 14:16:14;;;;;;;1.40;1.40;;;;;;;;;;5073547;28;20221;-90
2023/03/14 14:18:53;;;;;;;1.27;1.27;;;;;;;;;;5072921;28;20237;-89
2023/03/14 14:21:27;;;;;;;1.40;1.40;;;;;;;;;;5073078;28;20717;-89
2023/03/14 14:23:54;;;;;;;1.40;1.30;;;;;;;;;;5086977;28;20247;-90
2023/03/14 14:26:25;;;;;;;1.67;1.63;;;;;;;;;;5091851;28;20216;-90
2023/03/14 14:29:06;;;;;;;1.97;1.87;;;;;;;;;;5091412;28;20274;-90
2023/03/14 14:31:40;;;;;;;1.93;1.83;;;;;;;;;;5072694;28;20201;-91
2023/03/14 14:34:20;;;;;;;1.73;1.63;;;;;;;;;;5093005;28;20241;-89
2023/03/14 14:36:49;;;;;;;1.53;1.53;;;;;;;;;;5093439;28;20225;-90
2023/03/14 14:39:18;;;;;;;1.30;1.30;;;;;;;;;;5093550;28;20212;-90
2023/03/14 14:41:49;;;;;;;1.63;1.33;;;;;;;;;;5094080;28;20232;-90
2023/03/14 14:44:18;;;;;;;1.67;1.57;;;;;;;;;;5093579;28;20228;-90
2023/03/14 14:46:48;;;;;;;1.30;1.30;;;;;;;;;;5093673;28;20232;-89
2023/03/14 14:49:19;;;;;;;1.40;1.40;;;;;;;;;;5093635;28;20224;-91
2023/03/14 14:51:49;;;;;;;1.20;1.20;;;;;;;;;;5093772;28;20193;-90
2023/03/14 14:54:17;;;;;;;1.30;1.20;;;;;;;;;;5094030;28;20240;-89